sensor_id;sensor_type;location;lat;lon;timestamp;pressure;altitude;pressure_sealevel;temperature;humidity
13124;BME280;6627;50.920;12.050;2023-04-06T00:01:26;98469.69;;;8.90;47.64
13124;BME280;6627;50.920;12.050;2023-04-06T00:03:54;98356.66;;;8.18;48.85
13124;BME280;6627;50.920;12.050;2023-04-06T00:06:28;98501.53;;;9.07;48.08
13124;BME280;6627;50.920;12.050;2023-04-06T00:08:56;98459.09;;;8.94;47.66
13124;BME280;6627;50.920;12.050;2023-04-06T00:11:32;98418.50;;;8.33;49.83
13124;BME280;6627;50.920;12.050;2023-04-06T00:14:04;98540.22;;;9.21;48.26
13124;BME280;6627;50.920;12.050;2023-04-06T00:16:36;98616.41;;;9.83;46.94
13124;BME280;6627;50.920;12.050;2023-04-06T00:19:05;98633.66;;;9.88;47.24
13124;BME280;6627;50.920;12.050;2023-04-06T00:21:40;98571.22;;;9.70;46.18
13124;BME280;6627;50.920;12.050;2023-04-06T00:24:08;98553.88;;;9.44;47.27
13124;BME280;6627;50.920;12.050;2023-04-06T00:26:42;98584.13;;;9.73;46.50
13124;BME280;6627;50.920;12.050;2023-04-06T00:29:13;98482.13;;;9.05;47.37
13124;BME280;6627;50.920;12.050;2023-04-06T00:31:41;98668.94;;;10.10;46.69
13124;BME280;6627;50.920;12.050;2023-04-06T00:34:10;98661.56;;;10.29;46.03
13124;BME280;6627;50.920;12.050;2023-04-06T00:36:37;98723.75;;;10.76;45.31
13124;BME280;6627;50.920;12.050;2023-04-06T00:39:04;98687.59;;;10.67;45.03
13124;BME280;6627;50.920;12.050;2023-04-06T00:41:35;98580.34;;;10.16;44.92
13124;BME280;6627;50.920;12.050;2023-04-06T00:44:06;98622.06;;;10.42;44.75
13124;BME280;6627;50.920;12.050;2023-04-06T00:46:35;98566.50;;;10.17;44.59
13124;BME280;6627;50.920;12.050;2023-04-06T00:49:03;98576.72;;;10.20;44.89
13124;BME280;6627;50.920;12.050;2023-04-06T00:51:31;98506.44;;;9.79;45.31
13124;BME280;6627;50.920;12.050;2023-04-06T00:53:59;98672.78;;;10.64;45.04
13124;BME280;6627;50.920;12.050;2023-04-06T00:56:27;98574.94;;;10.16;45.43
13124;BME280;6627;50.920;12.050;2023-04-06T00:58:57;98594.00;;;10.24;45.33
13124;BME280;6627;50.920;12.050;2023-04-06T01:01:27;98572.13;;;10.34;44.36
13124;BME280;6627;50.920;12.050;2023-04-06T01:03:55;98502.19;;;9.86;44.97
13124;BME280;6627;50.920;12.050;2023-04-06T01:06:24;98485.19;;;9.72;45.26
13124;BME280;6627;50.920;12.050;2023-04-06T01:08:56;98549.28;;;9.99;45.46
13124;BME280;6627;50.920;12.050;2023-04-06T01:11:27;98567.72;;;10.11;45.17
13124;BME280;6627;50.920;12.050;2023-04-06T01:13:58;98522.03;;;9.96;45.06
13124;BME280;6627;50.920;12.050;2023-04-06T01:16:28;98534.56;;;9.92;45.20
13124;BME280;6627;50.920;12.050;2023-04-06T01:19:00;98404.00;;;8.95;46.88
13124;BME280;6627;50.920;12.050;2023-04-06T01:21:28;98359.50;;;8.46;48.48
13124;BME280;6627;50.920;12.050;2023-04-06T01:24:16;98459.50;;;9.01;48.24
13124;BME280;6627;50.920;12.050;2023-04-06T01:27:03;98493.41;;;9.40;47.48
13124;BME280;6627;50.920;12.050;2023-04-06T01:29:50;98643.72;;;10.42;45.76
13124;BME280;6627;50.920;12.050;2023-04-06T01:32:37;98697.22;;;10.86;45.22
13124;BME280;6627;50.920;12.050;2023-04-06T01:35:25;98641.31;;;10.41;46.16
13124;BME280;6627;50.920;12.050;2023-04-06T01:38:02;98487.00;;;9.63;45.51
13124;BME280;6627;50.920;12.050;2023-04-06T01:40:38;98675.97;;;10.66;45.51
13124;BME280;6627;50.920;12.050;2023-04-06T01:43:12;98592.59;;;10.41;44.81
13124;BME280;6627;50.920;12.050;2023-04-06T01:45:59;98588.00;;;10.27;44.97
13124;BME280;6627;50.920;12.050;2023-04-06T01:48:46;98582.16;;;10.20;45.17
13124;BME280;6627;50.920;12.050;2023-04-06T01:51:32;98700.00;;;11.09;43.65
13124;BME280;6627;50.920;12.050;2023-04-06T01:54:00;98568.63;;;10.34;44.65
13124;BME280;6627;50.920;12.050;2023-04-06T01:56:29;98625.41;;;10.75;44.20
13124;BME280;6627;50.920;12.050;2023-04-06T01:58:58;98634.47;;;10.57;45.14
13124;BME280;6627;50.920;12.050;2023-04-06T02:01:28;98643.91;;;10.59;45.40
13124;BME280;6627;50.920;12.050;2023-04-06T02:03:56;98593.19;;;10.38;45.23
13124;BME280;6627;50.920;12.050;2023-04-06T02:06:23;98614.41;;;10.72;44.49
13124;BME280;6627;50.920;12.050;2023-04-06T02:08:50;98691.38;;;11.07;44.21
13124;BME280;6627;50.920;12.050;2023-04-06T02:11:17;98545.84;;;10.21;44.97
13124;BME280;6627;50.920;12.050;2023-04-06T02:13:47;98575.53;;;10.26;45.51
13124;BME280;6627;50.920;12.050;2023-04-06T02:16:14;98528.63;;;10.03;46.01
13124;BME280;6627;50.920;12.050;2023-04-06T02:18:41;98444.44;;;9.55;46.19
13124;BME280;6627;50.920;12.050;2023-04-06T02:21:08;98430.34;;;9.30;47.12
13124;BME280;6627;50.920;12.050;2023-04-06T02:23:36;98488.41;;;9.74;46.36
13124;BME280;6627;50.920;12.050;2023-04-06T02:26:03;98557.31;;;10.18;45.90
13124;BME280;6627;50.920;12.050;2023-04-06T02:28:31;98528.16;;;10.01;46.00
13124;BME280;6627;50.920;12.050;2023-04-06T02:30:59;98320.44;;;8.57;47.93
13124;BME280;6627;50.920;12.050;2023-04-06T02:33:26;98387.84;;;8.90;47.96
13124;BME280;6627;50.920;12.050;2023-04-06T02:35:53;98518.84;;;9.66;47.31
13124;BME280;6627;50.920;12.050;2023-04-06T02:38:20;98359.47;;;8.78;47.37
13124;BME280;6627;50.920;12.050;2023-04-06T02:40:48;98323.22;;;8.19;49.23
13124;BME280;6627;50.920;12.050;2023-04-06T02:43:15;98313.25;;;8.01;49.88
13124;BME280;6627;50.920;12.050;2023-04-06T02:45:43;98274.41;;;7.69;50.86
13124;BME280;6627;50.920;12.050;2023-04-06T02:48:12;98266.19;;;7.42;52.09
13124;BME280;6627;50.920;12.050;2023-04-06T02:50:39;98328.44;;;7.59;51.73
13124;BME280;6627;50.920;12.050;2023-04-06T02:53:06;98367.84;;;7.74;51.67
13124;BME280;6627;50.920;12.050;2023-04-06T02:55:33;98395.41;;;7.90;51.19
13124;BME280;6627;50.920;12.050;2023-04-06T02:58:00;98443.72;;;8.05;51.37
13124;BME280;6627;50.920;12.050;2023-04-06T03:00:28;98440.75;;;8.06;51.26
13124;BME280;6627;50.920;12.050;2023-04-06T03:02:55;98473.97;;;8.21;51.12
13124;BME280;6627;50.920;12.050;2023-04-06T03:05:41;98510.66;;;8.41;50.54
13124;BME280;6627;50.920;12.050;2023-04-06T03:08:09;98475.56;;;8.22;50.97
13124;BME280;6627;50.920;12.050;2023-04-06T03:10:36;98441.75;;;7.92;51.58
13124;BME280;6627;50.920;12.050;2023-04-06T03:13:03;98504.25;;;8.37;50.74
13124;BME280;6627;50.920;12.050;2023-04-06T03:15:30;98545.03;;;8.73;49.98
13124;BME280;6627;50.920;12.050;2023-04-06T03:17:58;98565.00;;;8.72;50.51
13124;BME280;6627;50.920;12.050;2023-04-06T03:20:25;98613.66;;;9.23;49.11
13124;BME280;6627;50.920;12.050;2023-04-06T03:22:53;98610.28;;;9.31;48.30
13124;BME280;6627;50.920;12.050;2023-04-06T03:25:22;98654.81;;;9.53;48.34
13124;BME280;6627;50.920;12.050;2023-04-06T03:27:49;98641.63;;;9.65;47.58
13124;BME280;6627;50.920;12.050;2023-04-06T03:30:17;98612.94;;;9.50;47.59
13124;BME280;6627;50.920;12.050;2023-04-06T03:32:44;98470.91;;;8.65;48.48
13124;BME280;6627;50.920;12.050;2023-04-06T03:35:11;98539.34;;;9.07;47.70
13124;BME280;6627;50.920;12.050;2023-04-06T03:37:39;98632.41;;;9.66;47.18
13124;BME280;6627;50.920;12.050;2023-04-06T03:40:08;98697.03;;;10.14;46.13
13124;BME280;6627;50.920;12.050;2023-04-06T03:42:35;98614.50;;;9.70;46.75
13124;BME280;6627;50.920;12.050;2023-04-06T03:45:03;98622.19;;;9.77;46.60
13124;BME280;6627;50.920;12.050;2023-04-06T03:47:31;98662.31;;;10.16;45.63
13124;BME280;6627;50.920;12.050;2023-04-06T03:49:58;98644.69;;;10.05;45.66
13124;BME280;6627;50.920;12.050;2023-04-06T03:52:25;98572.28;;;9.55;46.89
13124;BME280;6627;50.920;12.050;2023-04-06T03:54:53;98584.50;;;9.53;47.53
13124;BME280;6627;50.920;12.050;2023-04-06T03:57:21;98575.50;;;9.44;47.54
13124;BME280;6627;50.920;12.050;2023-04-06T03:59:48;98516.38;;;9.23;47.37
13124;BME280;6627;50.920;12.050;2023-04-06T04:02:15;98534.19;;;9.24;47.44
13124;BME280;6627;50.920;12.050;2023-04-06T04:04:42;98435.25;;;8.68;47.93
13124;BME280;6627;50.920;12.050;2023-04-06T04:07:09;98538.13;;;9.46;46.85
13124;BME280;6627;50.920;12.050;2023-04-06T04:09:37;98615.00;;;10.00;45.76
13124;BME280;6627;50.920;12.050;2023-04-06T04:12:04;98590.31;;;9.60;47.30
13124;BME280;6627;50.920;12.050;2023-04-06T04:14:33;98538.97;;;9.14;47.99
13124;BME280;6627;50.920;12.050;2023-04-06T04:17:00;98569.28;;;9.43;47.22
13124;BME280;6627;50.920;12.050;2023-04-06T04:19:27;98451.72;;;8.67;47.96
13124;BME280;6627;50.920;12.050;2023-04-06T04:21:54;98412.38;;;8.28;49.10
13124;BME280;6627;50.920;12.050;2023-04-06T04:24:21;98376.53;;;7.90;50.13
13124;BME280;6627;50.920;12.050;2023-04-06T04:26:48;98366.03;;;7.69;50.98
13124;BME280;6627;50.920;12.050;2023-04-06T04:29:15;98327.44;;;7.55;50.78
13124;BME280;6627;50.920;12.050;2023-04-06T04:31:44;98540.09;;;8.94;48.59
13124;BME280;6627;50.920;12.050;2023-04-06T04:34:11;98436.75;;;8.42;48.58
13124;BME280;6627;50.920;12.050;2023-04-06T04:36:38;98497.72;;;8.75;48.44
13124;BME280;6627;50.920;12.050;2023-04-06T04:39:07;98457.63;;;8.50;48.75
13124;BME280;6627;50.920;12.050;2023-04-06T04:41:34;98378.72;;;7.69;50.35
13124;BME280;6627;50.920;12.050;2023-04-06T04:44:01;98449.41;;;8.22;49.87
13124;BME280;6627;50.920;12.050;2023-04-06T04:46:28;98350.25;;;7.63;49.88
13124;BME280;6627;50.920;12.050;2023-04-06T04:48:57;98481.03;;;8.35;49.88
13124;BME280;6627;50.920;12.050;2023-04-06T04:51:24;98445.34;;;8.06;50.43
13124;BME280;6627;50.920;12.050;2023-04-06T04:53:51;98543.28;;;8.63;49.97
13124;BME280;6627;50.920;12.050;2023-04-06T04:56:18;98528.09;;;8.67;49.34
13124;BME280;6627;50.920;12.050;2023-04-06T04:58:45;98424.84;;;8.05;49.50
13124;BME280;6627;50.920;12.050;2023-04-06T05:01:13;98404.22;;;7.76;50.33
13124;BME280;6627;50.920;12.050;2023-04-06T05:03:41;98455.97;;;8.16;49.57
13124;BME280;6627;50.920;12.050;2023-04-06T05:06:10;98396.78;;;7.68;50.76
13124;BME280;6627;50.920;12.050;2023-04-06T05:08:37;98351.56;;;7.22;51.71
13124;BME280;6627;50.920;12.050;2023-04-06T05:11:04;98428.19;;;7.78;50.59
13124;BME280;6627;50.920;12.050;2023-04-06T05:13:31;98422.06;;;7.72;50.84
13124;BME280;6627;50.920;12.050;2023-04-06T05:15:59;98419.50;;;7.62;51.42
13124;BME280;6627;50.920;12.050;2023-04-06T05:18:26;98414.13;;;7.62;51.40
13124;BME280;6627;50.920;12.050;2023-04-06T05:20:53;98499.84;;;8.03;50.41
13124;BME280;6627;50.920;12.050;2023-04-06T05:23:22;98553.34;;;8.57;49.09
13124;BME280;6627;50.920;12.050;2023-04-06T05:25:49;98678.94;;;9.30;48.37
13124;BME280;6627;50.920;12.050;2023-04-06T05:28:17;98615.25;;;9.24;47.13
13124;BME280;6627;50.920;12.050;2023-04-06T05:30:45;98682.41;;;9.50;47.02
13124;BME280;6627;50.920;12.050;2023-04-06T05:33:12;98661.22;;;9.57;46.37
13124;BME280;6627;50.920;12.050;2023-04-06T05:35:39;98696.63;;;9.74;46.41
13124;BME280;6627;50.920;12.050;2023-04-06T05:38:08;98602.88;;;9.37;46.12
13124;BME280;6627;50.920;12.050;2023-04-06T05:40:37;98615.09;;;9.34;46.79
13124;BME280;6627;50.920;12.050;2023-04-06T05:43:07;98711.22;;;9.92;46.06
13124;BME280;6627;50.920;12.050;2023-04-06T05:45:34;98621.34;;;9.49;46.30
13124;BME280;6627;50.920;12.050;2023-04-06T05:48:01;98558.94;;;9.31;46.24
13124;BME280;6627;50.920;12.050;2023-04-06T05:50:28;98652.06;;;9.85;45.59
13124;BME280;6627;50.920;12.050;2023-04-06T05:52:56;98495.97;;;9.17;45.53
13124;BME280;6627;50.920;12.050;2023-04-06T05:55:23;98615.78;;;9.86;44.64
13124;BME280;6627;50.920;12.050;2023-04-06T05:57:51;98514.91;;;9.31;45.24
13124;BME280;6627;50.920;12.050;2023-04-06T06:00:19;98616.00;;;10.04;44.34
13124;BME280;6627;50.920;12.050;2023-04-06T06:02:46;98534.06;;;9.62;44.21
13124;BME280;6627;50.920;12.050;2023-04-06T06:05:13;98494.69;;;9.56;43.52
13124;BME280;6627;50.920;12.050;2023-04-06T06:07:40;98615.84;;;10.14;43.57
13124;BME280;6627;50.920;12.050;2023-04-06T06:10:09;98501.03;;;9.65;44.01
13124;BME280;6627;50.920;12.050;2023-04-06T06:12:37;98466.75;;;9.47;43.76
13124;BME280;6627;50.920;12.050;2023-04-06T06:15:07;98532.47;;;9.89;43.39
13124;BME280;6627;50.920;12.050;2023-04-06T06:17:34;98561.91;;;10.04;43.00
13124;BME280;6627;50.920;12.050;2023-04-06T06:20:02;98570.94;;;10.27;42.32
13124;BME280;6627;50.920;12.050;2023-04-06T06:22:29;98584.63;;;10.44;42.00
13124;BME280;6627;50.920;12.050;2023-04-06T06:24:56;98602.97;;;10.61;41.79
13124;BME280;6627;50.920;12.050;2023-04-06T06:27:23;98543.22;;;10.44;41.56
13124;BME280;6627;50.920;12.050;2023-04-06T06:29:50;98638.19;;;10.97;41.49
13124;BME280;6627;50.920;12.050;2023-04-06T06:32:19;98578.16;;;10.81;41.29
13124;BME280;6627;50.920;12.050;2023-04-06T06:34:46;98682.47;;;11.29;41.00
13124;BME280;6627;50.920;12.050;2023-04-06T06:37:13;98469.06;;;10.45;40.78
13124;BME280;6627;50.920;12.050;2023-04-06T06:39:40;98604.03;;;11.10;40.55
13124;BME280;6627;50.920;12.050;2023-04-06T06:42:07;98596.16;;;11.22;39.93
13124;BME280;6627;50.920;12.050;2023-04-06T06:44:36;98564.41;;;11.23;39.67
13124;BME280;6627;50.920;12.050;2023-04-06T06:47:03;98617.47;;;11.60;39.28
13124;BME280;6627;50.920;12.050;2023-04-06T06:49:32;98543.28;;;11.33;39.41
13124;BME280;6627;50.920;12.050;2023-04-06T06:51:59;98366.72;;;10.55;39.49
13124;BME280;6627;50.920;12.050;2023-04-06T06:54:46;98514.66;;;11.19;39.34
13124;BME280;6627;50.920;12.050;2023-04-06T06:57:13;98427.31;;;10.91;38.97
13124;BME280;6627;50.920;12.050;2023-04-06T06:59:40;98488.34;;;11.19;39.11
13124;BME280;6627;50.920;12.050;2023-04-06T07:02:10;98644.88;;;12.12;38.38
13124;BME280;6627;50.920;12.050;2023-04-06T07:04:39;98602.41;;;12.16;37.40
13124;BME280;6627;50.920;12.050;2023-04-06T07:07:06;98475.00;;;11.71;37.60
13124;BME280;6627;50.920;12.050;2023-04-06T07:09:35;98534.31;;;11.86;38.02
13124;BME280;6627;50.920;12.050;2023-04-06T07:12:02;98371.78;;;11.19;37.96
13124;BME280;6627;50.920;12.050;2023-04-06T07:14:29;98445.72;;;11.51;37.95
13124;BME280;6627;50.920;12.050;2023-04-06T07:16:56;98629.34;;;12.61;37.09
13124;BME280;6627;50.920;12.050;2023-04-06T07:19:23;98480.41;;;12.11;36.29
13124;BME280;6627;50.920;12.050;2023-04-06T07:21:52;98445.25;;;12.06;35.85
13124;BME280;6627;50.920;12.050;2023-04-06T07:24:19;98669.56;;;13.07;35.92
13124;BME280;6627;50.920;12.050;2023-04-06T07:26:46;98433.28;;;12.24;35.48
13124;BME280;6627;50.920;12.050;2023-04-06T07:29:13;98555.06;;;12.92;35.16
13124;BME280;6627;50.920;12.050;2023-04-06T07:31:40;98457.41;;;12.34;36.06
13124;BME280;6627;50.920;12.050;2023-04-06T07:34:07;98522.59;;;12.69;35.93
13124;BME280;6627;50.920;12.050;2023-04-06T07:36:55;98456.63;;;12.51;35.57
13124;BME280;6627;50.920;12.050;2023-04-06T07:39:24;98726.66;;;14.03;34.52
13124;BME280;6627;50.920;12.050;2023-04-06T07:41:52;98762.81;;;14.29;34.16
13124;BME280;6627;50.920;12.050;2023-04-06T07:44:20;98586.28;;;13.76;33.80
13124;BME280;6627;50.920;12.050;2023-04-06T07:46:47;98540.06;;;13.67;33.63
13124;BME280;6627;50.920;12.050;2023-04-06T07:49:14;98468.09;;;13.56;32.84
13124;BME280;6627;50.920;12.050;2023-04-06T07:51:41;98608.25;;;14.18;33.38
13124;BME280;6627;50.920;12.050;2023-04-06T07:54:10;98610.91;;;14.26;33.47
13124;BME280;6627;50.920;12.050;2023-04-06T07:56:37;98467.84;;;13.70;34.07
13124;BME280;6627;50.920;12.050;2023-04-06T07:59:04;98534.84;;;14.21;32.67
13124;BME280;6627;50.920;12.050;2023-04-06T08:01:31;98458.22;;;14.02;32.25
13124;BME280;6627;50.920;12.050;2023-04-06T08:03:58;98405.00;;;13.83;32.11
13124;BME280;6627;50.920;12.050;2023-04-06T08:06:28;98431.28;;;14.09;31.45
13124;BME280;6627;50.920;12.050;2023-04-06T08:08:56;98402.16;;;14.01;31.42
13124;BME280;6627;50.920;12.050;2023-04-06T08:11:24;98547.09;;;14.66;31.66
13124;BME280;6627;50.920;12.050;2023-04-06T08:13:53;98380.47;;;14.13;31.03
13124;BME280;6627;50.920;12.050;2023-04-06T08:16:21;98371.44;;;14.21;30.71
13124;BME280;6627;50.920;12.050;2023-04-06T08:18:48;98558.53;;;15.13;30.72
13124;BME280;6627;50.920;12.050;2023-04-06T08:21:15;98676.31;;;15.90;29.94
13124;BME280;6627;50.920;12.050;2023-04-06T08:23:42;98426.47;;;15.02;29.83
13124;BME280;6627;50.920;12.050;2023-04-06T08:26:10;98325.03;;;14.63;29.71
13124;BME280;6627;50.920;12.050;2023-04-06T08:28:38;98252.97;;;14.27;30.05
13124;BME280;6627;50.920;12.050;2023-04-06T08:31:05;98504.13;;;15.74;28.82
13124;BME280;6627;50.920;12.050;2023-04-06T08:33:34;98341.34;;;15.08;28.76
13124;BME280;6627;50.920;12.050;2023-04-06T08:36:10;98454.38;;;15.56;29.08
13124;BME280;6627;50.920;12.050;2023-04-06T08:38:38;98519.38;;;16.12;28.09
13124;BME280;6627;50.920;12.050;2023-04-06T08:41:09;98380.09;;;15.75;28.04
13124;BME280;6627;50.920;12.050;2023-04-06T08:43:44;98564.22;;;16.48;29.24
13124;BME280;6627;50.920;12.050;2023-04-06T08:46:13;98396.09;;;16.13;27.70
13124;BME280;6627;50.920;12.050;2023-04-06T08:48:42;98177.94;;;15.44;27.27
13124;BME280;6627;50.920;12.050;2023-04-06T08:51:10;98449.31;;;16.72;26.84
13124;BME280;6627;50.920;12.050;2023-04-06T08:53:37;98143.41;;;15.63;26.45
13124;BME280;6627;50.920;12.050;2023-04-06T08:56:05;98389.09;;;16.84;25.78
13124;BME280;6627;50.920;12.050;2023-04-06T08:58:38;98221.78;;;16.51;24.79
13124;BME280;6627;50.920;12.050;2023-04-06T09:01:11;98140.25;;;16.21;25.69
13124;BME280;6627;50.920;12.050;2023-04-06T09:03:40;98330.63;;;17.05;25.51
13124;BME280;6627;50.920;12.050;2023-04-06T09:06:08;98039.44;;;16.16;24.70
13124;BME280;6627;50.920;12.050;2023-04-06T09:08:40;98042.91;;;16.32;24.50
13124;BME280;6627;50.920;12.050;2023-04-06T09:11:08;98343.31;;;17.80;24.42
13124;BME280;6627;50.920;12.050;2023-04-06T09:13:47;98542.06;;;18.79;24.71
13124;BME280;6627;50.920;12.050;2023-04-06T09:16:17;98226.44;;;17.68;24.28
13124;BME280;6627;50.920;12.050;2023-04-06T09:18:45;97865.88;;;16.42;23.74
13124;BME280;6627;50.920;12.050;2023-04-06T09:21:12;97942.19;;;16.70;23.46
13124;BME280;6627;50.920;12.050;2023-04-06T09:23:40;97814.84;;;16.26;23.63
13124;BME280;6627;50.920;12.050;2023-04-06T09:26:10;97942.06;;;16.62;24.06
13124;BME280;6627;50.920;12.050;2023-04-06T09:28:43;98119.59;;;17.45;23.92
13124;BME280;6627;50.920;12.050;2023-04-06T09:31:11;97967.69;;;16.93;23.85
13124;BME280;6627;50.920;12.050;2023-04-06T09:33:44;97933.81;;;16.78;23.81
13124;BME280;6627;50.920;12.050;2023-04-06T09:36:11;97929.19;;;16.82;23.88
13124;BME280;6627;50.920;12.050;2023-04-06T09:38:53;97857.38;;;16.47;24.10
13124;BME280;6627;50.920;12.050;2023-04-06T09:41:23;97793.72;;;16.23;24.09
13124;BME280;6627;50.920;12.050;2023-04-06T09:43:51;97681.22;;;15.75;24.03
13124;BME280;6627;50.920;12.050;2023-04-06T09:46:21;97961.41;;;16.73;24.61
13124;BME280;6627;50.920;12.050;2023-04-06T09:48:52;97768.78;;;16.25;23.50
13124;BME280;6627;50.920;12.050;2023-04-06T09:51:20;98082.91;;;17.50;23.40
13124;BME280;6627;50.920;12.050;2023-04-06T09:53:53;98210.13;;;18.14;23.44
13124;BME280;6627;50.920;12.050;2023-04-06T09:56:31;98275.84;;;18.53;23.56
13124;BME280;6627;50.920;12.050;2023-04-06T09:59:08;98017.31;;;17.57;23.13
13124;BME280;6627;50.920;12.050;2023-04-06T10:01:39;97717.75;;;16.32;23.64
13124;BME280;6627;50.920;12.050;2023-04-06T10:04:23;98004.91;;;17.63;22.95
13124;BME280;6627;50.920;12.050;2023-04-06T10:06:52;97911.78;;;17.36;22.83
13124;BME280;6627;50.920;12.050;2023-04-06T10:09:28;98033.28;;;17.74;23.42
13124;BME280;6627;50.920;12.050;2023-04-06T10:12:03;97970.34;;;17.55;22.98
13124;BME280;6627;50.920;12.050;2023-04-06T10:14:33;97800.72;;;16.86;23.43
13124;BME280;6627;50.920;12.050;2023-04-06T10:17:02;98082.09;;;17.92;23.56
13124;BME280;6627;50.920;12.050;2023-04-06T10:19:42;97801.94;;;16.88;23.80
13124;BME280;6627;50.920;12.050;2023-04-06T10:22:15;98047.03;;;18.01;22.85
13124;BME280;6627;50.920;12.050;2023-04-06T10:24:45;97916.50;;;17.39;23.03
13124;BME280;6627;50.920;12.050;2023-04-06T10:27:12;98159.94;;;18.56;22.60
13124;BME280;6627;50.920;12.050;2023-04-06T10:29:44;97754.41;;;17.23;22.07
13124;BME280;6627;50.920;12.050;2023-04-06T10:32:12;97784.13;;;17.25;22.59
13124;BME280;6627;50.920;12.050;2023-04-06T10:34:42;97915.16;;;17.53;23.37
13124;BME280;6627;50.920;12.050;2023-04-06T10:37:14;98026.25;;;18.23;22.17
13124;BME280;6627;50.920;12.050;2023-04-06T10:39:52;97937.34;;;17.94;22.26
13124;BME280;6627;50.920;12.050;2023-04-06T10:42:24;97814.69;;;17.57;21.86
13124;BME280;6627;50.920;12.050;2023-04-06T10:44:52;97606.19;;;16.61;22.87
13124;BME280;6627;50.920;12.050;2023-04-06T10:47:19;97808.28;;;17.19;23.39
13124;BME280;6627;50.920;12.050;2023-04-06T10:49:47;98139.91;;;18.29;24.56
13124;BME280;6627;50.920;12.050;2023-04-06T10:52:14;98150.13;;;18.81;22.57
13124;BME280;6627;50.920;12.050;2023-04-06T10:54:42;98218.31;;;19.06;23.01
13124;BME280;6627;50.920;12.050;2023-04-06T10:57:12;97874.22;;;17.60;23.12
13124;BME280;6627;50.920;12.050;2023-04-06T10:59:42;97805.88;;;17.40;22.98
13124;BME280;6627;50.920;12.050;2023-04-06T11:02:19;98074.66;;;18.68;22.18
13124;BME280;6627;50.920;12.050;2023-04-06T11:04:56;97938.78;;;18.14;22.45
13124;BME280;6627;50.920;12.050;2023-04-06T11:07:26;97934.38;;;18.06;22.67
13124;BME280;6627;50.920;12.050;2023-04-06T11:09:58;98147.69;;;19.03;22.40
13124;BME280;6627;50.920;12.050;2023-04-06T11:12:27;97857.03;;;18.16;21.61
13124;BME280;6627;50.920;12.050;2023-04-06T11:14:56;98137.66;;;19.14;22.12
13124;BME280;6627;50.920;12.050;2023-04-06T11:17:32;98372.81;;;20.39;21.74
13124;BME280;6627;50.920;12.050;2023-04-06T11:20:00;98066.78;;;19.23;21.87
13124;BME280;6627;50.920;12.050;2023-04-06T11:22:28;98130.66;;;19.50;21.92
13124;BME280;6627;50.920;12.050;2023-04-06T11:25:05;97727.63;;;18.00;22.05
13124;BME280;6627;50.920;12.050;2023-04-06T11:27:33;97832.81;;;18.22;22.56
13124;BME280;6627;50.920;12.050;2023-04-06T11:30:05;97936.97;;;18.85;21.95
13124;BME280;6627;50.920;12.050;2023-04-06T11:32:40;98127.72;;;19.66;22.02
13124;BME280;6627;50.920;12.050;2023-04-06T11:35:19;97658.34;;;17.62;22.25
13124;BME280;6627;50.920;12.050;2023-04-06T11:37:47;97830.59;;;18.34;21.55
13124;BME280;6627;50.920;12.050;2023-04-06T11:40:21;97712.72;;;17.97;21.37
13124;BME280;6627;50.920;12.050;2023-04-06T11:42:53;97904.56;;;18.61;22.20
13124;BME280;6627;50.920;12.050;2023-04-06T11:45:21;97985.78;;;19.03;21.98
13124;BME280;6627;50.920;12.050;2023-04-06T11:47:56;97796.34;;;18.55;20.82
13124;BME280;6627;50.920;12.050;2023-04-06T11:50:32;98117.13;;;19.68;21.62
13124;BME280;6627;50.920;12.050;2023-04-06T11:53:02;98090.66;;;19.90;20.82
13124;BME280;6627;50.920;12.050;2023-04-06T11:55:37;97754.41;;;18.51;21.23
13124;BME280;6627;50.920;12.050;2023-04-06T11:58:04;97632.97;;;18.06;20.97
13124;BME280;6627;50.920;12.050;2023-04-06T12:00:33;97497.13;;;17.57;20.93
13124;BME280;6627;50.920;12.050;2023-04-06T12:03:01;98017.66;;;19.52;21.41
13124;BME280;6627;50.920;12.050;2023-04-06T12:05:29;97757.56;;;18.53;21.26
13124;BME280;6627;50.920;12.050;2023-04-06T12:07:58;97800.50;;;18.75;21.17
13124;BME280;6627;50.920;12.050;2023-04-06T12:10:25;97748.56;;;18.56;20.97
13124;BME280;6627;50.920;12.050;2023-04-06T12:12:52;97622.97;;;18.24;20.81
13124;BME280;6627;50.920;12.050;2023-04-06T12:15:19;98026.56;;;19.75;21.07
13124;BME280;6627;50.920;12.050;2023-04-06T12:17:50;97931.22;;;19.38;21.51
13124;BME280;6627;50.920;12.050;2023-04-06T12:20:17;98040.81;;;19.88;21.24
13124;BME280;6627;50.920;12.050;2023-04-06T12:22:46;97768.94;;;18.96;20.65
13124;BME280;6627;50.920;12.050;2023-04-06T12:25:13;97729.88;;;18.69;21.20
13124;BME280;6627;50.920;12.050;2023-04-06T12:27:41;97744.81;;;18.71;21.49
13124;BME280;6627;50.920;12.050;2023-04-06T12:30:09;98087.50;;;20.32;20.80
13124;BME280;6627;50.920;12.050;2023-04-06T12:32:41;98136.31;;;20.46;21.48
13124;BME280;6627;50.920;12.050;2023-04-06T12:35:09;98043.03;;;20.27;20.55
13124;BME280;6627;50.920;12.050;2023-04-06T12:37:39;98153.03;;;20.68;20.99
13124;BME280;6627;50.920;12.050;2023-04-06T12:40:10;97874.19;;;19.69;20.82
13124;BME280;6627;50.920;12.050;2023-04-06T12:42:39;97875.44;;;19.75;20.49
13124;BME280;6627;50.920;12.050;2023-04-06T12:45:08;98143.56;;;20.65;22.02
13124;BME280;6627;50.920;12.050;2023-04-06T12:47:36;97928.66;;;20.11;20.62
13124;BME280;6627;50.920;12.050;2023-04-06T12:50:05;97813.25;;;19.53;21.31
13124;BME280;6627;50.920;12.050;2023-04-06T12:52:32;98001.00;;;20.26;21.08
13124;BME280;6627;50.920;12.050;2023-04-06T12:55:01;97773.25;;;19.59;20.37
13124;BME280;6627;50.920;12.050;2023-04-06T12:57:30;97919.28;;;20.20;20.04
13124;BME280;6627;50.920;12.050;2023-04-06T13:00:03;97514.31;;;18.57;20.51
13124;BME280;6627;50.920;12.050;2023-04-06T13:02:30;97843.72;;;19.88;20.55
13124;BME280;6627;50.920;12.050;2023-04-06T13:04:57;97772.41;;;19.48;21.01
13124;BME280;6627;50.920;12.050;2023-04-06T13:07:25;97694.75;;;19.44;19.79
13124;BME280;6627;50.920;12.050;2023-04-06T13:09:52;97565.09;;;18.92;19.97
13124;BME280;6627;50.920;12.050;2023-04-06T13:12:19;97903.97;;;20.26;20.11
13124;BME280;6627;50.920;12.050;2023-04-06T13:14:48;97917.81;;;20.36;19.87
13124;BME280;6627;50.920;12.050;2023-04-06T13:17:18;97554.53;;;19.01;20.21